Time;durP1;ratioP1;P1;durP2;ratioP2;P2;SDS_P1;SDS_P2;PMS_P1;PMS_P2;Temp;Humidity;BMP_temperature;BMP_pressure;BME280_temperature;BME280_humidity;BME280_pressure;Samples;Min_cycle;Max_cycle;Signal;HPM_P1;HPM_P2
2021/05/24 00:01:41;;;;;;;1.50;0.80;;;;;;;27.62;27.96;96564.03;4977974;28;20045;-36
2021/05/24 00:04:06;;;;;;;1.23;0.75;;;;;;;27.61;27.72;96564.97;4979769;28;20038;-34
2021/05/24 00:06:31;;;;;;;1.27;0.77;;;;;;;27.62;27.67;96556.13;4984110;28;20034;-37
2021/05/24 00:08:57;;;;;;;1.73;1.02;;;;;;;27.62;27.82;96550.88;4974744;28;20022;-34
2021/05/24 00:11:22;;;;;;;1.30;0.55;;;;;;;27.61;27.79;96551.81;4979254;28;20061;-36
2021/05/24 00:13:55;;;;;;;2.70;1.05;;;;;;;27.61;27.94;96545.72;4982703;28;20034;-31
2021/05/24 00:16:21;;;;;;;1.88;0.70;;;;;;;27.61;27.83;96535.19;4970491;28;20088;-32
2021/05/24 00:18:50;;;;;;;3.15;0.65;;;;;;;27.60;27.80;96536.94;4982254;28;20129;-35
2021/05/24 00:21:16;;;;;;;2.53;0.80;;;;;;;27.59;27.77;96527.38;4981317;28;20146;-32
2021/05/24 00:23:41;;;;;;;4.43;0.90;;;;;;;27.59;27.77;96532.63;4980396;28;20037;-36
2021/05/24 00:26:07;;;;;;;1.92;0.80;;;;;;;27.59;27.75;96537.91;4983010;28;20428;-32
2021/05/24 00:28:32;;;;;;;3.60;0.70;;;;;;;27.59;27.77;96543.16;4987053;28;20028;-35
2021/05/24 00:30:58;;;;;;;1.52;0.68;;;;;;;27.59;27.80;96551.06;4983600;28;20037;-31
2021/05/24 00:33:23;;;;;;;0.80;0.60;;;;;;;27.58;27.71;96549.34;4982021;28;20112;-36
2021/05/24 00:35:48;;;;;;;1.15;0.60;;;;;;;27.58;27.71;96544.09;4980815;28;20061;-34
2021/05/24 00:38:14;;;;;;;4.75;1.30;;;;;;;27.57;27.83;96529.25;4984538;28;20034;-32
2021/05/24 00:40:39;;;;;;;1.33;0.68;;;;;;;27.58;27.81;96520.38;4984256;28;20404;-32
2021/05/24 00:43:06;;;;;;;1.08;0.68;;;;;;;27.58;27.76;96512.50;4983791;28;20034;-36
2021/05/24 00:45:31;;;;;;;1.83;0.68;;;;;;;27.58;27.86;96515.13;4983456;28;20030;-32
2021/05/24 00:47:56;;;;;;;0.80;0.50;;;;;;;27.58;27.80;96498.50;4978985;28;20045;-36
2021/05/24 00:50:22;;;;;;;0.95;0.68;;;;;;;27.57;27.78;96497.66;4988976;28;20075;-32
2021/05/24 00:52:47;;;;;;;1.20;0.45;;;;;;;27.57;27.77;96502.91;4984017;28;20034;-35
2021/05/24 00:55:13;;;;;;;1.95;0.82;;;;;;;27.58;27.79;96498.50;4984304;28;20030;-33
2021/05/24 00:57:38;;;;;;;1.58;0.60;;;;;;;27.57;27.76;96502.09;4986442;28;20045;-36
2021/05/24 01:00:09;;;;;;;1.13;0.70;;;;;;;27.55;27.76;96499.56;4993217;28;20125;-35
2021/05/24 01:02:34;;;;;;;1.45;0.70;;;;;;;27.56;27.81;96501.25;4977306;28;20065;-33
2021/05/24 01:04:59;;;;;;;3.60;0.50;;;;;;;27.55;27.78;96489.03;4982705;28;20037;-35
2021/05/24 01:07:25;;;;;;;0.70;0.55;;;;;;;27.56;27.81;96492.50;4984615;28;20496;-37
2021/05/24 01:09:50;;;;;;;0.80;0.40;;;;;;;27.56;27.84;96500.38;4979559;28;20061;-33
2021/05/24 01:12:16;;;;;;;1.35;0.60;;;;;;;27.55;27.74;96491.66;4980985;28;20092;-34
2021/05/24 01:14:41;;;;;;;1.60;0.82;;;;;;;27.53;27.80;96489.13;4983593;28;20092;-36
2021/05/24 01:17:07;;;;;;;1.70;0.70;;;;;;;27.53;27.77;96486.50;4986105;28;20805;-35
2021/05/24 01:19:32;;;;;;;1.05;0.68;;;;;;;27.54;27.84;96482.09;4983424;28;20022;-34
2021/05/24 01:21:57;;;;;;;0.98;0.40;;;;;;;27.53;27.81;96469.84;4982063;28;20030;-34
2021/05/24 01:24:23;;;;;;;1.30;0.50;;;;;;;27.53;27.85;96472.47;4977050;28;20029;-36
2021/05/24 01:26:48;;;;;;;0.52;0.47;;;;;;;27.53;27.88;96470.69;4978324;28;20030;-33
2021/05/24 01:29:15;;;;;;;0.55;0.50;;;;;;;27.52;27.87;96452.38;4985780;28;20030;-32
2021/05/24 01:31:41;;;;;;;0.90;0.60;;;;;;;27.52;27.86;96449.75;4981252;28;20038;-34
2021/05/24 01:34:06;;;;;;;2.13;0.50;;;;;;;27.53;27.77;96454.06;4982266;28;20879;-31
2021/05/24 01:36:31;;;;;;;1.48;0.60;;;;;;;27.52;27.87;96447.09;4979342;28;20025;-33
2021/05/24 01:38:57;;;;;;;1.00;0.43;;;;;;;27.52;27.87;96460.28;4982539;28;20030;-33
2021/05/24 01:41:23;;;;;;;0.85;0.50;;;;;;;27.50;27.81;96446.38;4981191;28;20108;-32
2021/05/24 01:43:50;;;;;;;3.38;0.50;;;;;;;27.51;27.90;96445.44;4979202;28;20026;-35
2021/05/24 01:46:16;;;;;;;1.65;0.60;;;;;;;27.46;27.87;96447.53;4977450;28;20041;-34
2021/05/24 01:48:41;;;;;;;1.60;0.60;;;;;;;27.49;27.87;96453.41;4983170;28;20681;-34
2021/05/24 01:51:07;;;;;;;0.98;0.60;;;;;;;27.50;27.90;96454.28;4980106;28;20030;-34
2021/05/24 01:53:33;;;;;;;1.48;0.50;;;;;;;27.48;27.81;96450.88;4982738;28;20040;-33
2021/05/24 01:55:58;;;;;;;1.05;0.50;;;;;;;27.48;27.82;96446.47;4979481;28;20025;-34
2021/05/24 01:58:24;;;;;;;1.20;0.75;;;;;;;27.48;27.83;96440.34;4982792;28;20494;-35
2021/05/24 02:00:50;;;;;;;0.73;0.45;;;;;;;27.48;27.83;96445.63;4982577;28;20042;-38
2021/05/24 02:03:15;;;;;;;1.45;0.55;;;;;;;27.48;27.79;96443.84;4986200;28;20034;-36
2021/05/24 02:05:41;;;;;;;0.60;0.50;;;;;;;27.48;27.79;96449.09;4980423;28;20038;-35
2021/05/24 02:08:07;;;;;;;1.25;0.40;;;;;;;27.48;27.88;96456.16;4982938;28;20081;-33
2021/05/24 02:10:37;;;;;;;0.75;0.47;;;;;;;27.47;27.82;96449.22;4982459;28;20030;-30
2021/05/24 02:13:03;;;;;;;0.60;0.50;;;;;;;27.48;27.84;96445.63;4981921;28;20026;-35
2021/05/24 02:15:30;;;;;;;1.67;0.60;;;;;;;27.47;28.01;96433.41;4977228;28;20030;-30
2021/05/24 02:17:55;;;;;;;0.98;0.43;;;;;;;27.47;27.90;96418.47;4982943;28;20058;-32
2021/05/24 02:20:25;;;;;;;4.32;0.50;;;;;;;27.46;27.92;96415.94;4981931;28;20034;-34
2021/05/24 02:22:51;;;;;;;2.38;0.40;;;;;;;27.46;27.83;96427.31;4978617;28;20563;-36
2021/05/24 02:25:17;;;;;;;2.78;0.52;;;;;;;27.45;27.92;96425.63;4975212;28;20036;-36
2021/05/24 02:27:42;;;;;;;0.50;0.40;;;;;;;27.44;27.79;96429.19;4982068;28;20026;-34
2021/05/24 02:30:08;;;;;;;1.73;0.43;;;;;;;27.44;27.78;96425.72;4984404;28;20045;-34
2021/05/24 02:32:34;;;;;;;1.52;0.50;;;;;;;27.43;27.88;96414.38;4977987;28;20033;-36
2021/05/24 02:34:59;;;;;;;0.50;0.47;;;;;;;27.43;27.90;96395.09;4979945;28;20594;-37
2021/05/24 02:37:24;;;;;;;2.72;0.50;;;;;;;27.43;27.91;96417.00;4978669;28;20037;-37
2021/05/24 02:39:51;;;;;;;1.27;0.57;;;;;;;27.43;27.89;96410.88;4981142;28;20081;-37
2021/05/24 02:42:16;;;;;;;4.35;0.32;;;;;;;27.43;27.85;96395.94;4997995;28;20034;-33
2021/05/24 02:44:42;;;;;;;0.75;0.40;;;;;;;27.43;27.91;96400.34;4976324;28;21233;-39
2021/05/24 02:47:08;;;;;;;2.17;0.50;;;;;;;27.43;27.93;96400.34;4979156;28;20025;-37
2021/05/24 02:49:33;;;;;;;2.10;0.60;;;;;;;27.42;27.97;96404.75;4981389;28;20026;-36
2021/05/24 02:51:58;;;;;;;0.57;0.40;;;;;;;27.42;27.83;96390.78;4984651;28;20034;-34
2021/05/24 02:54:24;;;;;;;2.80;0.60;;;;;;;27.42;27.80;96388.16;4982208;28;20076;-35
2021/05/24 02:56:49;;;;;;;0.75;0.35;;;;;;;27.42;27.94;96398.69;4979146;28;20026;-32
2021/05/24 02:59:14;;;;;;;0.95;0.40;;;;;;;27.41;27.72;96397.81;4979380;28;20477;-36
2021/05/24 03:01:40;;;;;;;0.63;0.57;;;;;;;27.41;27.84;96400.44;4981988;28;20038;-36
2021/05/24 03:04:07;;;;;;;2.85;0.43;;;;;;;27.42;27.82;96401.31;4983477;28;20022;-35
2021/05/24 03:06:33;;;;;;;1.20;0.47;;;;;;;27.39;27.82;96394.47;4985855;28;20029;-33
2021/05/24 03:08:58;;;;;;;1.55;0.40;;;;;;;27.40;27.89;96396.13;4982799;28;20072;-36
2021/05/24 03:11:24;;;;;;;1.17;0.50;;;;;;;27.39;27.92;96392.66;4984292;28;20052;-33
2021/05/24 03:13:50;;;;;;;2.13;0.50;;;;;;;27.39;27.89;96400.53;4977861;28;20034;-33
2021/05/24 03:16:15;;;;;;;0.57;0.40;;;;;;;27.39;27.91;96399.72;4984844;28;20133;-33
2021/05/24 03:18:41;;;;;;;0.90;0.40;;;;;;;27.39;27.92;96391.81;4984123;28;20053;-40
2021/05/24 03:21:06;;;;;;;0.90;0.40;;;;;;;27.38;27.82;96404.13;4980129;28;20531;-38
2021/05/24 03:23:32;;;;;;;0.65;0.43;;;;;;;27.37;27.83;96402.44;4977786;28;20037;-35
2021/05/24 03:25:57;;;;;;;0.63;0.20;;;;;;;27.37;28.00;96397.19;4974732;28;20034;-33
2021/05/24 03:28:23;;;;;;;2.08;0.32;;;;;;;27.38;27.98;96396.22;4978543;28;20041;-34
2021/05/24 03:30:48;;;;;;;1.25;0.60;;;;;;;27.37;27.88;96394.56;4985729;28;20104;-35
2021/05/24 03:33:13;;;;;;;0.60;0.35;;;;;;;27.33;27.76;96381.69;4986713;28;20049;-32
2021/05/24 03:35:39;;;;;;;0.50;0.28;;;;;;;27.36;27.87;96390.25;4986079;28;20045;-37
2021/05/24 03:38:04;;;;;;;1.00;0.50;;;;;;;27.36;27.90;96387.63;4982201;28;20018;-38
2021/05/24 03:40:30;;;;;;;1.55;0.40;;;;;;;27.36;27.88;96392.03;4985072;28;20587;-32
2021/05/24 03:42:55;;;;;;;0.50;0.30;;;;;;;27.36;27.74;96386.75;4985531;28;20040;-33
2021/05/24 03:45:26;;;;;;;0.93;0.55;;;;;;;27.35;27.92;96378.00;4978149;28;20624;-35
2021/05/24 03:47:52;;;;;;;1.50;0.40;;;;;;;27.35;27.86;96380.63;4979393;28;20038;-35
2021/05/24 03:50:17;;;;;;;1.25;0.50;;;;;;;27.36;27.95;96384.97;4981451;28;20041;-33
2021/05/24 03:52:43;;;;;;;0.82;0.50;;;;;;;27.35;27.84;96379.81;4984396;28;20052;-33
2021/05/24 03:55:09;;;;;;;0.98;0.30;;;;;;;27.33;27.81;96377.28;4981523;28;20057;-36
2021/05/24 03:57:34;;;;;;;0.43;0.40;;;;;;;27.34;27.87;96384.22;4983315;28;20580;-34
2021/05/24 04:00:00;;;;;;;2.83;0.50;;;;;;;27.34;27.85;96376.34;4980991;28;20038;-35
2021/05/24 04:02:25;;;;;;;1.25;0.50;;;;;;;27.33;27.82;96379.91;4976437;28;20097;-33
2021/05/24 04:04:51;;;;;;;1.08;0.30;;;;;;;27.33;27.87;96390.44;4981334;28;20075;-32
2021/05/24 04:07:23;;;;;;;0.30;0.30;;;;;;;27.32;27.85;96388.75;4978380;28;20022;-35
2021/05/24 04:09:49;;;;;;;0.85;0.52;;;;;;;27.33;27.88;96384.31;4981041;28;20026;-34
2021/05/24 04:12:15;;;;;;;0.68;0.50;;;;;;;27.33;27.91;96382.53;4980504;28;20060;-37
2021/05/24 04:14:41;;;;;;;0.20;0.20;;;;;;;27.32;28.01;96378.25;4982271;28;20034;-34
2021/05/24 04:17:07;;;;;;;0.82;0.52;;;;;;;27.30;27.88;96380.09;4977503;28;20034;-37
2021/05/24 04:19:32;;;;;;;0.40;0.30;;;;;;;27.31;28.00;96373.91;4981853;28;20026;-34
2021/05/24 04:21:57;;;;;;;0.55;0.30;;;;;;;27.31;27.97;96379.16;4980970;28;20084;-32
2021/05/24 04:24:23;;;;;;;2.72;0.55;;;;;;;27.30;28.01;96380.09;4975642;28;20676;-33
2021/05/24 04:26:48;;;;;;;0.40;0.40;;;;;;;27.30;27.90;96374.84;4979970;28;20029;-34
2021/05/24 04:29:14;;;;;;;1.33;0.47;;;;;;;27.30;27.74;96380.09;4981411;28;20029;-32
2021/05/24 04:31:39;;;;;;;1.27;0.77;;;;;;;27.30;27.92;96380.09;4976807;28;20646;-34
2021/05/24 04:34:04;;;;;;;0.73;0.40;;;;;;;27.30;27.90;96379.28;4985064;28;20030;-33
2021/05/24 04:36:30;;;;;;;0.30;0.22;;;;;;;27.29;28.02;96372.31;4978981;28;20318;-34
2021/05/24 04:38:55;;;;;;;1.85;0.70;;;;;;;27.30;27.88;96376.66;4980183;28;20896;-34
2021/05/24 04:41:21;;;;;;;0.25;0.25;;;;;;;27.29;27.92;96362.66;4982329;28;20045;-37
2021/05/24 04:43:46;;;;;;;1.30;0.50;;;;;;;27.29;28.02;96372.31;4977949;28;20038;-38
2021/05/24 04:46:12;;;;;;;0.68;0.40;;;;;;;27.26;27.94;96358.44;4977780;28;20108;-35
2021/05/24 04:48:37;;;;;;;2.50;0.30;;;;;;;27.27;28.03;96352.22;4975718;28;20491;-33
2021/05/24 04:51:03;;;;;;;1.15;0.40;;;;;;;27.26;27.92;96357.56;4976276;28;20397;-34
2021/05/24 04:53:31;;;;;;;0.40;0.20;;;;;;;27.27;27.99;96351.41;4977169;28;20033;-31
2021/05/24 04:55:57;;;;;;;1.10;0.55;;;;;;;27.26;27.95;96352.31;4977604;28;20073;-34
2021/05/24 04:58:22;;;;;;;1.27;0.30;;;;;;;27.26;28.03;96347.06;4979470;28;20034;-34
2021/05/24 05:00:48;;;;;;;0.38;0.30;;;;;;;27.26;27.78;96358.44;4971810;28;20673;-35
2021/05/24 05:03:13;;;;;;;0.73;0.40;;;;;;;27.25;27.95;96355.91;4978242;28;20034;-33
2021/05/24 05:05:40;;;;;;;0.98;0.43;;;;;;;27.26;28.02;96352.31;4979402;28;20112;-35
2021/05/24 05:08:06;;;;;;;1.15;0.45;;;;;;;27.25;28.05;96353.25;4977692;28;20102;-33
2021/05/24 05:10:31;;;;;;;0.35;0.32;;;;;;;27.25;28.02;96358.53;4978732;28;20488;-33
2021/05/24 05:12:56;;;;;;;0.70;0.40;;;;;;;27.25;27.94;96356.75;4979027;28;20335;-32
2021/05/24 05:15:22;;;;;;;0.38;0.35;;;;;;;27.25;27.96;96366.41;4979523;28;20631;-30
2021/05/24 05:17:47;;;;;;;0.98;0.40;;;;;;;27.23;27.97;96361.25;4976049;28;20034;-33
2021/05/24 05:20:13;;;;;;;0.40;0.20;;;;;;;27.23;27.93;96345.47;4978932;28;20046;-31
2021/05/24 05:22:38;;;;;;;0.80;0.40;;;;;;;27.23;28.04;96348.09;4977209;28;20133;-38
2021/05/24 05:25:04;;;;;;;0.85;0.40;;;;;;;27.24;28.07;96348.97;4981603;28;20519;-35
2021/05/24 05:27:30;;;;;;;1.42;0.30;;;;;;;27.23;27.94;96352.53;4983075;28;20030;-31
2021/05/24 05:29:55;;;;;;;0.32;0.30;;;;;;;27.23;28.08;96352.53;4974515;28;20040;-36
2021/05/24 05:32:21;;;;;;;0.47;0.40;;;;;;;27.23;28.02;96347.28;4980514;28;20697;-35
2021/05/24 05:34:46;;;;;;;0.85;0.40;;;;;;;27.23;28.09;96349.91;4980840;28;20053;-34
2021/05/24 05:37:11;;;;;;;0.25;0.20;;;;;;;27.23;27.90;96348.09;4978873;28;20030;-34
2021/05/24 05:39:37;;;;;;;0.82;0.40;;;;;;;27.22;27.99;96343.78;4981973;28;20041;-35
2021/05/24 05:42:03;;;;;;;0.32;0.30;;;;;;;27.22;28.04;96345.56;4982967;28;20037;-32
2021/05/24 05:44:28;;;;;;;0.45;0.40;;;;;;;27.23;28.01;96342.03;4982176;28;20029;-37
2021/05/24 05:46:53;;;;;;;0.70;0.32;;;;;;;27.22;28.04;96329.78;4979833;28;20176;-35
2021/05/24 05:49:19;;;;;;;1.13;0.40;;;;;;;27.22;28.10;96327.16;4979985;28;20022;-34
2021/05/24 05:51:44;;;;;;;1.25;0.30;;;;;;;27.22;27.99;96322.75;4976833;28;20030;-30
2021/05/24 05:54:10;;;;;;;0.63;0.43;;;;;;;27.22;28.06;96320.13;4982684;28;20030;-33
2021/05/24 05:56:35;;;;;;;0.30;0.30;;;;;;;27.22;27.99;96314.84;4981155;28;20037;-33
2021/05/24 05:59:00;;;;;;;0.75;0.20;;;;;;;27.21;28.05;96313.19;4983066;28;20458;-31
2021/05/24 06:01:26;;;;;;;0.75;0.30;;;;;;;27.21;28.04;96309.69;4972747;28;20743;-34
2021/05/24 06:03:51;;;;;;;2.28;0.30;;;;;;;27.21;28.11;96297.41;4978272;28;20072;-37
2021/05/24 06:06:18;;;;;;;1.10;0.50;;;;;;;27.22;28.00;96306.13;4978262;28;20583;-35
2021/05/24 06:08:44;;;;;;;0.57;0.30;;;;;;;27.21;27.95;96301.81;4979899;28;20057;-34
2021/05/24 06:11:09;;;;;;;0.90;0.30;;;;;;;27.21;28.06;96312.31;4976609;28;20034;-34
2021/05/24 06:13:34;;;;;;;0.75;0.30;;;;;;;27.19;28.10;96304.53;4977787;28;20781;-34
2021/05/24 06:16:00;;;;;;;0.82;0.20;;;;;;;27.20;28.01;96310.66;4977509;28;20034;-33
2021/05/24 06:18:25;;;;;;;0.30;0.30;;;;;;;27.20;27.98;96315.91;4979319;28;20064;-34
2021/05/24 06:20:51;;;;;;;2.03;0.50;;;;;;;27.20;28.14;96316.75;4978606;28;20072;-33
2021/05/24 06:23:16;;;;;;;0.40;0.30;;;;;;;27.20;28.05;96322.03;4975769;28;20026;-34
2021/05/24 06:25:42;;;;;;;0.30;0.30;;;;;;;27.20;28.05;96321.16;4980572;28;20829;-36
2021/05/24 06:28:08;;;;;;;1.02;0.40;;;;;;;27.21;28.11;96314.97;4973631;28;20033;-41
2021/05/24 06:30:34;;;;;;;0.55;0.38;;;;;;;27.20;28.04;96315.91;4975729;28;20334;-32
2021/05/24 06:32:59;;;;;;;0.57;0.20;;;;;;;27.20;28.03;96324.66;4973254;28;20022;-35
2021/05/24 06:35:25;;;;;;;1.25;0.20;;;;;;;27.19;28.08;96304.53;4974586;28;20030;-31
2021/05/24 06:37:50;;;;;;;0.30;0.28;;;;;;;27.20;28.05;96310.66;4982212;28;20022;-33
2021/05/24 06:40:15;;;;;;;0.32;0.30;;;;;;;27.19;27.95;96301.91;4984708;28;20030;-36
2021/05/24 06:42:42;;;;;;;0.73;0.45;;;;;;;27.19;28.01;96303.72;4991765;28;20184;-30
2021/05/24 06:45:09;;;;;;;0.55;0.20;;;;;;;27.18;28.06;96300.22;4983541;28;20121;-29
2021/05/24 06:47:35;;;;;;;1.75;0.20;;;;;;;27.19;28.15;96308.97;4984250;28;20034;-33
2021/05/24 06:50:00;;;;;;;4.35;0.85;;;;;;;27.19;28.26;96293.19;4986015;28;20254;-35
2021/05/24 06:52:26;;;;;;;2.47;0.50;;;;;;;27.18;28.34;96302.84;4983838;28;20034;-37
2021/05/24 06:54:51;;;;;;;4.47;0.50;;;;;;;27.19;28.33;96298.44;4975016;28;20544;-32
2021/05/24 06:57:16;;;;;;;2.67;0.50;;;;;;;27.19;28.36;96287.94;4986483;28;20034;-32
2021/05/24 06:59:42;;;;;;;3.72;0.52;;;;;;;27.18;28.22;96287.06;4984794;28;20042;-34
2021/05/24 07:02:09;;;;;;;5.60;0.75;;;;;;;27.19;28.27;96293.19;4972210;28;20068;-30
2021/05/24 07:04:35;;;;;;;7.22;0.65;;;;;;;27.18;28.10;96308.13;4971150;28;20775;-30
2021/05/24 07:07:01;;;;;;;9.40;0.50;;;;;;;27.18;28.16;96312.53;4981839;28;20146;-34
2021/05/24 07:09:26;;;;;;;0.80;0.50;;;;;;;27.19;28.12;96306.34;4978208;28;20518;-34
2021/05/24 07:11:53;;;;;;;2.00;0.60;;;;;;;27.18;28.27;96307.25;4958978;28;20040;-32
2021/05/24 07:14:19;;;;;;;4.07;0.70;;;;;;;27.18;28.34;96308.13;4973146;28;20084;-33
2021/05/24 07:16:44;;;;;;;12.60;0.80;;;;;;;27.15;28.33;96296.97;4975177;28;20984;-34
2021/05/24 07:19:09;;;;;;;2.28;0.77;;;;;;;27.17;28.28;96295.91;4979128;28;20029;-32
2021/05/24 07:21:35;;;;;;;3.33;0.80;;;;;;;27.20;28.22;96302.75;4965276;28;20049;-30
2021/05/24 07:24:00;;;;;;;1.48;0.73;;;;;;;27.22;28.16;96292.97;4976249;28;22786;-34
2021/05/24 07:26:26;;;;;;;1.27;0.60;;;;;;;27.22;28.32;96292.97;4981996;28;20793;-33
2021/05/24 07:28:51;;;;;;;1.35;0.60;;;;;;;27.22;28.31;96303.47;4977515;28;20661;-34
2021/05/24 07:31:16;;;;;;;3.80;0.90;;;;;;;27.24;27.97;96304.25;4984602;28;20039;-35
2021/05/24 07:33:42;;;;;;;4.47;0.90;;;;;;;27.24;28.19;96297.16;4979401;28;20030;-34
2021/05/24 07:36:07;;;;;;;0.82;0.60;;;;;;;27.23;28.27;96295.50;4980740;28;20025;-35
2021/05/24 07:38:32;;;;;;;3.42;0.70;;;;;;;27.25;28.30;96288.34;4982032;28;20730;-32
2021/05/24 07:40:58;;;;;;;1.65;1.00;;;;;;;27.27;28.42;96290.88;4977954;28;20045;-33
2021/05/24 07:43:24;;;;;;;2.22;0.80;;;;;;;27.26;28.39;96283.91;4982728;28;20387;-34
2021/05/24 07:45:49;;;;;;;3.60;0.80;;;;;;;27.26;28.50;96290.03;4983117;28;20112;-33
2021/05/24 07:48:15;;;;;;;2.30;0.73;;;;;;;27.27;28.34;96286.44;4979306;28;20029;-35
2021/05/24 07:50:40;;;;;;;0.40;0.38;;;;;;;27.29;28.44;96280.25;4978142;28;20069;-36
2021/05/24 07:53:06;;;;;;;2.38;0.68;;;;;;;27.28;28.50;96271.53;4983247;28;20058;-34
2021/05/24 07:55:31;;;;;;;6.35;0.80;;;;;;;27.28;28.54;96258.38;4985239;28;20385;-34
2021/05/24 07:57:56;;;;;;;3.70;0.90;;;;;;;27.30;28.41;96266.16;4983181;28;20026;-34
2021/05/24 08:00:25;;;;;;;3.17;0.73;;;;;;;27.30;28.54;96268.78;4979856;28;20500;-32
2021/05/24 08:02:51;;;;;;;1.13;0.80;;;;;;;27.30;28.60;96263.53;4981685;28;20134;-33
2021/05/24 08:05:17;;;;;;;3.15;0.90;;;;;;;27.30;28.62;96258.28;4985424;28;20040;-33
2021/05/24 08:07:43;;;;;;;0.90;0.60;;;;;;;27.31;28.65;96265.22;4985702;28;20031;-38
2021/05/24 08:10:09;;;;;;;1.73;0.82;;;;;;;27.31;28.73;96266.03;4978053;28;20056;-33
2021/05/24 08:12:37;;;;;;;4.47;1.00;;;;;;;27.32;28.69;96267.75;4982924;28;20076;-34
2021/05/24 08:15:08;;;;;;;1.80;0.80;;;;;;;27.33;28.69;96258.03;4966269;28;20084;-33
2021/05/24 08:17:33;;;;;;;1.33;0.80;;;;;;;27.33;28.73;96258.91;4985036;28;20392;-33
2021/05/24 08:19:59;;;;;;;1.25;0.60;;;;;;;27.33;28.72;96258.91;4987218;28;20030;-33
2021/05/24 08:22:24;;;;;;;2.22;0.75;;;;;;;27.34;28.84;96260.56;4977831;28;20681;-34
2021/05/24 08:24:50;;;;;;;2.15;0.70;;;;;;;27.35;28.82;96264.88;4980768;28;20034;-31
2021/05/24 08:27:15;;;;;;;1.85;0.52;;;;;;;27.34;28.88;96257.94;4983004;28;20072;-31
2021/05/24 08:29:40;;;;;;;1.65;0.80;;;;;;;27.35;28.89;96256.97;4984098;28;20104;-30
2021/05/24 08:32:06;;;;;;;1.80;0.90;;;;;;;27.36;28.91;96245.53;4982628;28;20034;-33
2021/05/24 08:34:31;;;;;;;0.80;0.50;;;;;;;27.37;28.86;96249.84;4983442;28;20026;-34
2021/05/24 08:36:57;;;;;;;1.75;0.60;;;;;;;27.37;28.93;96244.59;4978590;28;20038;-31
2021/05/24 08:39:22;;;;;;;4.15;0.60;;;;;;;27.38;28.94;96248.03;4974002;28;20116;-30
2021/05/24 08:41:47;;;;;;;17.65;1.40;;;;;;;27.34;26.88;96242.16;4976072;28;20064;-26
2021/05/24 08:44:13;;;;;;;4.88;1.10;;;;;;;27.26;25.65;96241.84;4957303;28;20054;-31
2021/05/24 08:46:38;;;;;;;2.60;1.10;;;;;;;27.18;24.74;96233.63;4955803;28;20034;-34
2021/05/24 08:49:04;;;;;;;6.72;1.60;;;;;;;27.08;24.91;96234.25;4955454;28;20126;-39
2021/05/24 08:51:30;;;;;;;6.97;1.30;;;;;;;27.01;25.17;96232.97;4953524;28;21975;-33
2021/05/24 08:53:55;;;;;;;3.17;1.02;;;;;;;26.97;25.41;96221.00;4967034;28;20030;-34
2021/05/24 08:56:21;;;;;;;2.83;1.00;;;;;;;26.95;25.69;96217.59;4978422;28;20038;-35
2021/05/24 08:58:46;;;;;;;2.58;1.02;;;;;;;26.95;25.91;96215.81;4972887;28;20464;-31
2021/05/24 09:01:11;;;;;;;3.22;1.15;;;;;;;26.95;26.05;96212.34;4973015;28;20050;-33
2021/05/24 09:03:41;;;;;;;1.77;0.65;;;;;;;26.96;26.32;96220.13;4974225;28;20033;-35
2021/05/24 09:06:08;;;;;;;1.95;0.90;;;;;;;26.98;26.36;96206.88;4973325;28;20022;-34
2021/05/24 09:08:37;;;;;;;2.70;1.20;;;;;;;27.00;26.46;96204.97;4972945;28;20066;-30
2021/05/24 09:11:03;;;;;;;2.40;1.00;;;;;;;27.02;26.37;96197.84;4970630;28;20031;-31
2021/05/24 09:13:30;;;;;;;3.72;1.30;;;;;;;27.04;26.67;96195.94;4972909;28;20079;-33
2021/05/24 09:15:56;;;;;;;3.10;1.05;;;;;;;27.06;26.77;96201.09;4974668;28;20061;-33
2021/05/24 09:18:22;;;;;;;6.20;1.20;;;;;;;27.08;26.80;96193.97;4976364;28;20537;-35
2021/05/24 09:20:51;;;;;;;4.78;1.30;;;;;;;27.09;26.82;96191.25;4979076;28;20037;-33
2021/05/24 09:23:17;;;;;;;1.60;1.05;;;;;;;27.10;26.92;96190.28;4975853;28;20060;-33
2021/05/24 09:26:24;;;;;;;2.97;1.00;;;;;;;27.11;27.01;96186.69;4977486;28;20038;-30
2021/05/24 09:28:51;;;;;;;9.85;1.90;;;;;;;27.13;27.04;96178.72;4900305;29;20032;-36
2021/05/24 09:31:23;;;;;;;7.53;2.30;;;;;;;27.16;27.27;96188.19;4956182;28;20022;-34
2021/05/24 09:33:53;;;;;;;6.47;2.40;;;;;;;27.17;27.26;96185.44;4973559;28;20033;-35
2021/05/24 09:36:18;;;;;;;8.57;2.20;;;;;;;27.18;27.34;96187.13;4972567;28;20037;-33
2021/05/24 09:38:45;;;;;;;5.53;2.65;;;;;;;27.16;27.37;96182.91;4977318;28;20572;-32
2021/05/24 09:41:12;;;;;;;8.85;2.35;;;;;;;27.20;27.41;96173.88;4975036;28;20034;-33
2021/05/24 09:43:42;;;;;;;15.73;2.60;;;;;;;27.21;27.73;96176.41;4975647;28;20060;-33
2021/05/24 09:46:10;;;;;;;7.30;2.42;;;;;;;27.22;27.60;96167.56;4978312;28;20026;-34
2021/05/24 09:48:35;;;;;;;7.05;2.28;;;;;;;27.23;27.76;96173.66;4975347;28;20033;-34
2021/05/24 09:51:05;;;;;;;5.55;2.65;;;;;;;27.23;27.84;96166.59;4977972;28;20025;-34
2021/05/24 09:53:30;;;;;;;4.65;2.22;;;;;;;27.24;27.76;96170.09;4974290;28;20041;-33
2021/05/24 09:56:05;;;;;;;7.55;1.95;;;;;;;27.26;27.84;96168.16;4975741;28;20029;-39
2021/05/24 09:58:30;;;;;;;5.35;2.10;;;;;;;27.26;27.92;96168.16;4966822;28;20030;-34
2021/05/24 10:01:13;;;;;;;8.48;1.80;;;;;;;27.27;27.93;96167.25;4980425;28;20923;-35
2021/05/24 10:03:40;;;;;;;4.63;1.90;;;;;;;27.28;28.00;96161.03;4973557;28;20026;-32
2021/05/24 10:06:05;;;;;;;5.18;2.00;;;;;;;27.29;28.02;96157.44;4975278;28;20026;-31
2021/05/24 10:08:31;;;;;;;5.50;1.85;;;;;;;27.30;28.17;96153.03;4975518;28;20033;-38
2021/05/24 10:10:57;;;;;;;3.92;1.77;;;;;;;27.30;28.11;96143.34;4980383;28;20091;-34
2021/05/24 10:13:24;;;;;;;3.08;1.30;;;;;;;27.31;28.12;96134.50;4965194;28;20038;-33
2021/05/24 10:15:54;;;;;;;7.55;1.90;;;;;;;27.33;28.22;96135.25;4979819;28;20030;-31
2021/05/24 10:18:19;;;;;;;3.42;1.50;;;;;;;27.33;28.28;96131.75;4980822;28;20299;-34
2021/05/24 10:20:45;;;;;;;5.15;1.60;;;;;;;27.33;28.31;96131.75;4982901;28;20037;-35
2021/05/24 10:23:11;;;;;;;5.60;1.90;;;;;;;27.35;28.22;96129.88;4978811;28;20523;-34
2021/05/24 10:25:36;;;;;;;4.28;1.63;;;;;;;27.34;28.34;96136.91;4985042;28;20037;-30
2021/05/24 10:28:02;;;;;;;5.55;1.42;;;;;;;27.36;28.33;96136.81;4960949;28;20713;-35
2021/05/24 10:30:27;;;;;;;5.32;1.95;;;;;;;27.36;28.42;96129.78;4977516;28;20049;-33
2021/05/24 10:32:57;;;;;;;4.25;1.67;;;;;;;27.37;28.31;96128.81;4960672;28;20557;-35
2021/05/24 10:35:36;;;;;;;5.10;1.50;;;;;;;27.37;28.38;96133.22;4979208;28;20061;-37
2021/05/24 10:38:20;;;;;;;3.22;1.13;;;;;;;27.38;28.26;96129.63;4977765;28;20062;-32
2021/05/24 10:40:46;;;;;;;3.63;1.23;;;;;;;27.38;28.30;96127.88;4989266;28;20466;-35
2021/05/24 10:43:15;;;;;;;5.35;1.60;;;;;;;27.38;28.42;96119.97;4975979;28;20038;-33
2021/05/24 10:45:40;;;;;;;3.03;1.40;;;;;;;27.38;28.39;96114.72;4978472;28;20033;-34
2021/05/24 10:48:08;;;;;;;5.68;1.83;;;;;;;27.38;28.40;96116.47;4984039;28;20033;-34
2021/05/24 10:50:35;;;;;;;3.70;1.73;;;;;;;27.41;28.54;96128.63;4957296;28;20033;-37
2021/05/24 10:53:01;;;;;;;7.93;2.00;;;;;;;27.41;28.52;96121.53;4984596;28;20576;-35
2021/05/24 10:55:41;;;;;;;2.67;1.50;;;;;;;27.41;28.59;96123.34;4981346;28;20030;-35
2021/05/24 10:58:09;;;;;;;7.03;1.92;;;;;;;27.42;28.50;96119.75;4986004;28;20100;-36
2021/05/24 11:01:00;;;;;;;5.57;1.70;;;;;;;27.42;28.48;96114.50;4981188;28;20058;-36
2021/05/24 11:03:25;;;;;;;3.45;1.63;;;;;;;27.43;28.59;96116.19;4984874;28;20022;-36
2021/05/24 11:06:06;;;;;;;3.78;1.80;;;;;;;27.44;28.48;96107.31;4984604;28;20034;-33
2021/05/24 11:08:34;;;;;;;6.97;1.80;;;;;;;27.43;28.57;96100.38;4985073;28;20026;-37
2021/05/24 11:11:00;;;;;;;5.22;1.83;;;;;;;27.43;28.57;96095.97;4981027;28;20551;-31
2021/05/24 11:13:25;;;;;;;4.93;1.80;;;;;;;27.44;28.64;96099.44;4967382;28;20040;-39
2021/05/24 11:15:51;;;;;;;5.03;1.80;;;;;;;27.45;28.43;96098.47;4982581;28;20126;-33
2021/05/24 11:18:17;;;;;;;5.38;1.48;;;;;;;27.45;28.59;96091.44;4984827;28;20029;-38
2021/05/24 11:21:14;;;;;;;6.47;1.70;;;;;;;27.46;28.54;96084.38;4983942;28;20036;-35
2021/05/24 11:29:14;;;;;;;4.07;1.70;;;;;;;27.46;28.69;96079.94;4986470;28;20034;-35
2021/05/24 11:31:40;;;;;;;3.10;1.48;;;;;;;27.48;28.69;96071.94;4982026;28;20141;-33
2021/05/24 11:34:25;;;;;;;3.78;1.50;;;;;;;27.48;28.63;96077.22;4986328;28;20133;-35
2021/05/24 11:36:51;;;;;;;5.57;1.70;;;;;;;27.48;28.78;96077.22;4986960;28;20639;-32